Time;durP1;ratioP1;P1;durP2;ratioP2;P2;SDS_P1;SDS_P2;PMS_P1;PMS_P2;Temp;Humidity;BMP_temperature;BMP_pressure;BME280_temperature;BME280_humidity;BME280_pressure;Samples;Min_cycle;Max_cycle;Signal;HPM_P1;HPM_P2
2022/01/22 00:01:19;;;;;;;;;;;7.10;99.90;;;;;;5137510;27;19930;-76
2022/01/22 00:03:45;;;;;;;;;;;7.00;99.90;;;;;;5137806;27;19967;-76
2022/01/22 00:06:10;;;;;;;;;;;7.10;99.90;;;;;;5120426;27;19922;-77
2022/01/22 00:08:36;;;;;;;;;;;7.00;99.90;;;;;;5136577;27;19923;-77
2022/01/22 00:11:02;;;;;;;;;;;7.00;99.90;;;;;;5136482;27;19934;-77
2022/01/22 00:16:12;;;;;;;;;;;7.00;99.90;;;;;;5101680;28;20372;-79
2022/01/22 00:18:40;;;;;;;;;;;7.00;99.90;;;;;;5115731;28;20014;-76
2022/01/22 00:21:05;;;;;;;;;;;7.00;99.90;;;;;;5132051;27;19968;-77
2022/01/22 00:23:32;;;;;;;;;;;7.10;99.90;;;;;;5137242;27;19927;-78
2022/01/22 00:25:57;;;;;;;;;;;7.00;99.90;;;;;;5137434;27;20320;-78
2022/01/22 00:28:23;;;;;;;;;;;7.10;99.90;;;;;;5136520;27;19942;-79
2022/01/22 00:30:48;;;;;;;;;;;7.00;99.90;;;;;;5099447;28;19923;-79
2022/01/22 00:33:16;;;;;;;;;;;7.00;99.90;;;;;;5132317;27;19930;-79
2022/01/22 00:35:42;;;;;;;;;;;7.00;99.90;;;;;;5136068;27;19930;-79
2022/01/22 00:38:08;;;;;;;;;;;7.00;99.90;;;;;;5136282;27;20379;-79
2022/01/22 00:40:33;;;;;;;;;;;7.00;99.90;;;;;;5100911;27;19979;-79
2022/01/22 00:42:59;;;;;;;;;;;6.90;99.90;;;;;;5117995;27;20283;-79
2022/01/22 00:45:25;;;;;;;;;;;6.90;99.90;;;;;;5136118;27;19978;-79
2022/01/22 00:47:50;;;;;;;;;;;6.90;99.90;;;;;;5119378;27;20279;-79
2022/01/22 00:50:17;;;;;;;;;;;6.90;99.90;;;;;;5136246;27;19927;-79
2022/01/22 00:52:43;;;;;;;;;;;6.90;99.90;;;;;;5136399;27;19923;-80
2022/01/22 00:55:09;;;;;;;;;;;6.90;99.90;;;;;;5136453;27;19975;-79
2022/01/22 00:57:35;;;;;;;;;;;6.90;99.90;;;;;;5136179;27;19930;-84
2022/01/22 01:00:00;;;;;;;;;;;6.80;99.90;;;;;;5136389;27;19923;-79
2022/01/22 01:02:26;;;;;;;;;;;6.80;99.90;;;;;;5136285;27;20362;-79
2022/01/22 01:04:52;;;;;;;;;;;6.80;99.90;;;;;;5118635;27;20377;-79
2022/01/22 01:07:17;;;;;;;;;;;6.80;99.90;;;;;;5136567;27;19972;-80
2022/01/22 01:09:43;;;;;;;;;;;6.70;99.90;;;;;;5135839;27;19986;-80
2022/01/22 01:12:11;;;;;;;;;;;6.80;99.90;;;;;;5118787;27;19927;-80
2022/01/22 01:14:47;;;;;;;;;;;6.80;99.90;;;;;;5118119;27;19927;-82
2022/01/22 01:34:19;;;;;;;;;;;6.80;99.90;;;;;;5109147;27;20352;-80
2022/01/22 01:36:47;;;;;;;;;;;6.70;99.90;;;;;;5135709;27;20434;-79
2022/01/22 01:39:17;;;;;;;;;;;6.60;99.90;;;;;;5136514;27;20005;-80
2022/01/22 01:41:59;;;;;;;;;;;6.70;99.90;;;;;;5138795;27;19923;-80
2022/01/22 01:44:25;;;;;;;;;;;6.60;99.90;;;;;;5120804;27;20311;-80
2022/01/22 01:46:53;;;;;;;;;;;6.60;99.90;;;;;;5121873;27;20051;-80
2022/01/22 01:49:19;;;;;;;;;;;6.70;99.90;;;;;;5139396;27;19924;-79
2022/01/22 01:51:45;;;;;;;;;;;6.70;99.90;;;;;;5139274;27;19946;-80
2022/01/22 01:59:26;;;;;;;;;;;6.60;99.90;;;;;;5138971;27;19923;-80
2022/01/22 02:01:51;;;;;;;;;;;6.60;99.90;;;;;;5139134;27;19981;-78
2022/01/22 02:04:17;;;;;;;;;;;6.60;99.90;;;;;;5138897;27;19930;-78
2022/01/22 02:06:43;;;;;;;;;;;6.60;99.90;;;;;;5121312;27;19923;-78
2022/01/22 02:09:10;;;;;;;;;;;6.60;99.90;;;;;;5138926;27;20421;-79
2022/01/22 02:11:36;;;;;;;;;;;6.60;99.90;;;;;;5137919;27;19945;-78
2022/01/22 02:24:43;;;;;;;;;;;6.60;99.90;;;;;;5135103;27;19931;-79
2022/01/22 02:27:09;;;;;;;;;;;6.60;99.90;;;;;;5138309;27;20374;-78
2022/01/22 02:29:35;;;;;;;;;;;6.50;99.90;;;;;;5137790;27;19977;-78
2022/01/22 02:32:41;;;;;;;;;;;6.50;99.90;;;;;;5120990;27;19923;-78
2022/01/22 02:35:02;;;;;;;;;;;6.50;99.90;;;;;;5137230;27;20383;-78
2022/01/22 02:37:34;;;;;;;;;;;6.50;99.90;;;;;;5121034;27;19923;-78
2022/01/22 02:40:07;;;;;;;;;;;6.50;99.90;;;;;;5118305;27;19924;-79
2022/01/22 02:42:35;;;;;;;;;;;6.50;99.90;;;;;;5114953;27;19923;-79
2022/01/22 02:45:03;;;;;;;;;;;6.60;99.90;;;;;;5121722;27;19919;-79
2022/01/22 02:47:29;;;;;;;;;;;6.50;99.90;;;;;;5137827;27;20382;-79
2022/01/22 02:49:54;;;;;;;;;;;6.50;99.90;;;;;;5104141;27;19923;-79
2022/01/22 02:52:20;;;;;;;;;;;6.50;99.90;;;;;;5117270;27;20269;-79
2022/01/22 02:54:46;;;;;;;;;;;6.60;99.90;;;;;;5136394;27;19946;-79
2022/01/22 02:57:13;;;;;;;;;;;6.60;99.90;;;;;;5138144;27;19923;-79
2022/01/22 02:59:39;;;;;;;;;;;6.60;99.90;;;;;;5138380;27;19923;-79
2022/01/22 03:02:05;;;;;;;;;;;6.60;99.90;;;;;;5138598;27;19971;-81
2022/01/22 03:04:31;;;;;;;;;;;6.60;99.90;;;;;;5156424;27;19952;-79
2022/01/22 03:06:57;;;;;;;;;;;6.50;99.90;;;;;;5137376;27;19923;-86
2022/01/22 03:09:28;;;;;;;;;;;6.50;99.90;;;;;;5137647;27;20272;-79
2022/01/22 03:22:28;;;;;;;;;;;6.50;99.90;;;;;;5137488;27;19934;-80
2022/01/22 03:27:38;;;;;;;;;;;6.50;99.90;;;;;;5137716;27;19930;-80
2022/01/22 03:30:04;;;;;;;;;;;6.50;99.90;;;;;;5136573;27;19934;-82
2022/01/22 03:32:36;;;;;;;;;;;6.50;99.90;;;;;;5134652;27;19923;-80
2022/01/22 03:35:23;;;;;;;;;;;6.50;99.90;;;;;;5135546;27;19930;-81
2022/01/22 03:37:52;;;;;;;;;;;6.50;99.90;;;;;;5137054;27;20287;-81
2022/01/22 03:40:21;;;;;;;;;;;6.50;99.90;;;;;;5136963;27;19963;-80
2022/01/22 03:42:47;;;;;;;;;;;6.40;99.90;;;;;;5136906;27;20289;-80
2022/01/22 03:45:12;;;;;;;;;;;6.40;99.90;;;;;;5119519;27;20017;-81
2022/01/22 03:47:38;;;;;;;;;;;6.40;99.90;;;;;;5136668;27;19973;-80
2022/01/22 03:50:04;;;;;;;;;;;6.40;99.90;;;;;;5127411;27;19927;-81
2022/01/22 03:52:29;;;;;;;;;;;6.40;99.90;;;;;;5119668;27;20003;-81
2022/01/22 03:54:55;;;;;;;;;;;6.50;99.90;;;;;;5116950;27;19927;-80
2022/01/22 03:57:23;;;;;;;;;;;6.50;99.90;;;;;;5116494;27;19924;-80
2022/01/22 03:59:49;;;;;;;;;;;6.50;99.90;;;;;;5114356;27;20014;-81
2022/01/22 04:03:19;;;;;;;;;;;6.50;99.90;;;;;;5107455;27;19930;-80
2022/01/22 04:05:07;;;;;;;;;;;6.50;99.90;;;;;;5113555;27;19930;-80
2022/01/22 04:10:19;;;;;;;;;;;6.60;99.90;;;;;;5116818;28;19927;-81
2022/01/22 04:15:26;;;;;;;;;;;6.50;99.90;;;;;;5135451;27;19930;-80
2022/01/22 04:26:17;;;;;;;;;;;6.60;99.90;;;;;;5131446;27;19964;-81
2022/01/22 04:28:42;;;;;;;;;;;6.60;99.90;;;;;;5102779;27;20026;-81
2022/01/22 04:31:08;;;;;;;;;;;6.60;99.90;;;;;;5104298;28;20014;-81
2022/01/22 04:33:33;;;;;;;;;;;6.60;99.90;;;;;;5123899;27;19927;-81
2022/01/22 04:35:59;;;;;;;;;;;6.60;99.90;;;;;;5110907;27;19976;-80
2022/01/22 04:38:25;;;;;;;;;;;6.50;99.90;;;;;;5136817;27;19923;-81
2022/01/22 04:40:50;;;;;;;;;;;6.60;99.90;;;;;;5117881;27;19923;-80
2022/01/22 04:43:16;;;;;;;;;;;6.60;99.90;;;;;;5135200;27;19923;-80
2022/01/22 04:56:12;;;;;;;;;;;6.50;99.90;;;;;;5112632;27;19981;-81
2022/01/22 04:58:37;;;;;;;;;;;6.50;99.90;;;;;;5135984;27;19966;-81
2022/01/22 05:01:03;;;;;;;;;;;6.50;99.90;;;;;;5128631;27;19923;-81
2022/01/22 05:03:28;;;;;;;;;;;6.50;99.90;;;;;;5122266;27;19975;-85
2022/01/22 05:05:54;;;;;;;;;;;6.50;99.90;;;;;;5133334;27;19974;-80
2022/01/22 05:08:19;;;;;;;;;;;6.50;99.90;;;;;;5123730;27;20263;-80
2022/01/22 05:10:45;;;;;;;;;;;6.40;99.90;;;;;;5118589;27;20264;-80
2022/01/22 05:13:10;;;;;;;;;;;6.40;99.90;;;;;;5115294;27;20007;-81
2022/01/22 05:15:36;;;;;;;;;;;6.40;99.90;;;;;;5129689;27;19923;-81
2022/01/22 05:18:06;;;;;;;;;;;6.40;99.90;;;;;;5121499;27;19927;-80
2022/01/22 05:20:38;;;;;;;;;;;6.30;99.90;;;;;;5130666;27;19923;-80
2022/01/22 05:25:36;;;;;;;;;;;6.30;99.90;;;;;;5139355;27;19923;-80
2022/01/22 05:28:17;;;;;;;;;;;6.20;99.90;;;;;;5119179;27;20356;-80
2022/01/22 05:38:32;;;;;;;;;;;6.30;99.90;;;;;;5140006;27;19971;-80
2022/01/22 05:40:57;;;;;;;;;;;6.20;99.90;;;;;;5122641;27;20010;-81
2022/01/22 05:43:23;;;;;;;;;;;6.20;99.90;;;;;;5139783;27;19927;-80
2022/01/22 05:45:48;;;;;;;;;;;6.20;99.90;;;;;;5122455;27;19930;-79
2022/01/22 05:48:14;;;;;;;;;;;6.20;99.90;;;;;;5122393;27;19919;-80
2022/01/22 05:53:15;;;;;;;;;;;6.30;99.90;;;;;;5139597;27;19923;-81
2022/01/22 06:00:52;;;;;;;;;;;6.20;99.90;;;;;;5139549;27;19946;-81
2022/01/22 06:03:18;;;;;;;;;;;6.20;99.90;;;;;;5134265;27;19934;-83
2022/01/22 06:05:43;;;;;;;;;;;6.10;99.90;;;;;;5139556;27;19927;-81
2022/01/22 06:08:10;;;;;;;;;;;6.00;99.90;;;;;;5120863;27;20015;-81
2022/01/22 06:10:37;;;;;;;;;;;6.10;99.90;;;;;;5104726;27;20427;-80
2022/01/22 06:13:12;;;;;;;;;;;6.00;99.90;;;;;;5122090;27;20278;-81
2022/01/22 06:15:38;;;;;;;;;;;6.10;99.90;;;;;;5106145;27;20244;-81
2022/01/22 06:18:04;;;;;;;;;;;6.10;99.90;;;;;;5138130;27;19952;-80
2022/01/22 06:20:30;;;;;;;;;;;6.10;99.90;;;;;;5122177;27;19948;-78
2022/01/22 06:22:55;;;;;;;;;;;6.20;99.90;;;;;;5138562;27;19937;-78
2022/01/22 06:25:21;;;;;;;;;;;6.20;99.90;;;;;;5137731;27;19948;-78
2022/01/22 06:27:46;;;;;;;;;;;6.20;99.90;;;;;;5138406;27;19923;-78
2022/01/22 06:30:12;;;;;;;;;;;6.20;99.90;;;;;;5138895;27;20324;-79
2022/01/22 06:32:37;;;;;;;;;;;6.30;99.90;;;;;;5104279;27;19923;-78
2022/01/22 06:35:03;;;;;;;;;;;6.30;99.90;;;;;;5137989;27;20013;-78
2022/01/22 06:37:29;;;;;;;;;;;6.30;99.90;;;;;;5117401;27;20375;-78
2022/01/22 06:42:32;;;;;;;;;;;6.40;99.90;;;;;;5138101;27;20371;-80
2022/01/22 06:44:58;;;;;;;;;;;6.40;99.90;;;;;;5116953;27;20394;-83
2022/01/22 06:47:24;;;;;;;;;;;6.50;99.90;;;;;;5117102;27;19996;-79
2022/01/22 06:49:50;;;;;;;;;;;6.50;99.90;;;;;;5137871;27;20287;-80
2022/01/22 06:52:15;;;;;;;;;;;6.50;99.90;;;;;;5134893;27;19976;-80
2022/01/22 06:54:42;;;;;;;;;;;6.50;99.90;;;;;;5120841;27;19926;-79
2022/01/22 06:57:08;;;;;;;;;;;6.50;99.90;;;;;;5137776;27;19927;-80
2022/01/22 06:59:33;;;;;;;;;;;6.50;99.90;;;;;;5137652;27;19934;-80
2022/01/22 07:01:59;;;;;;;;;;;6.50;99.90;;;;;;5128853;27;19978;-79
2022/01/22 07:04:24;;;;;;;;;;;6.50;99.90;;;;;;5138148;27;20340;-80
2022/01/22 07:06:50;;;;;;;;;;;6.60;99.90;;;;;;5137723;27;19923;-79
2022/01/22 07:09:15;;;;;;;;;;;6.60;99.90;;;;;;5137828;27;19968;-79
2022/01/22 07:11:41;;;;;;;;;;;6.60;99.90;;;;;;5137374;27;20290;-80
2022/01/22 07:14:06;;;;;;;;;;;6.60;99.90;;;;;;5137908;27;19961;-80
2022/01/22 07:16:32;;;;;;;;;;;6.60;99.90;;;;;;5120690;27;19930;-80
2022/01/22 07:19:01;;;;;;;;;;;6.60;99.90;;;;;;5137424;27;20302;-80
2022/01/22 07:21:29;;;;;;;;;;;6.60;99.90;;;;;;5120482;27;19931;-79
2022/01/22 07:24:22;;;;;;;;;;;6.60;99.90;;;;;;5116785;27;19966;-80
2022/01/22 07:26:40;;;;;;;;;;;6.60;99.90;;;;;;5102006;27;20064;-81
2022/01/22 07:29:06;;;;;;;;;;;6.60;99.90;;;;;;5115390;27;19972;-80
2022/01/22 07:31:32;;;;;;;;;;;6.60;99.90;;;;;;5131480;27;19931;-82
2022/01/22 07:33:57;;;;;;;;;;;6.60;99.90;;;;;;5108727;27;20281;-79
2022/01/22 07:36:23;;;;;;;;;;;6.60;99.90;;;;;;5119934;27;20029;-78
2022/01/22 07:38:48;;;;;;;;;;;6.60;99.90;;;;;;5111314;27;19968;-78
2022/01/22 07:41:15;;;;;;;;;;;6.60;99.90;;;;;;5086073;27;19930;-78
2022/01/22 07:43:41;;;;;;;;;;;6.60;99.90;;;;;;5133882;27;19923;-78
2022/01/22 07:46:07;;;;;;;;;;;6.50;99.90;;;;;;5117437;27;20374;-78
2022/01/22 07:48:32;;;;;;;;;;;6.50;99.90;;;;;;5099423;27;19974;-79
2022/01/22 07:50:58;;;;;;;;;;;6.50;99.90;;;;;;5099354;27;19923;-78
2022/01/22 07:53:24;;;;;;;;;;;6.60;99.90;;;;;;5104924;27;19931;-78
2022/01/22 07:55:50;;;;;;;;;;;6.60;99.90;;;;;;5136714;27;19926;-78
2022/01/22 07:58:16;;;;;;;;;;;6.60;99.90;;;;;;5155812;27;20330;-78
2022/01/22 08:00:42;;;;;;;;;;;6.60;99.90;;;;;;5137418;27;19923;-78
2022/01/22 08:03:08;;;;;;;;;;;6.60;99.90;;;;;;5137039;27;19923;-81
2022/01/22 08:05:34;;;;;;;;;;;6.60;99.90;;;;;;5120454;27;19927;-78
2022/01/22 08:08:00;;;;;;;;;;;6.60;99.90;;;;;;5123905;27;19952;-82
2022/01/22 08:10:26;;;;;;;;;;;6.70;99.90;;;;;;5135249;27;20011;-81
2022/01/22 08:12:52;;;;;;;;;;;6.60;99.90;;;;;;5110426;27;19923;-79
2022/01/22 08:15:18;;;;;;;;;;;6.70;99.90;;;;;;5135979;27;19923;-80
2022/01/22 08:17:44;;;;;;;;;;;6.60;99.90;;;;;;5118569;27;19950;-79
2022/01/22 08:20:15;;;;;;;;;;;6.70;99.90;;;;;;5132977;27;19923;-80
2022/01/22 08:22:41;;;;;;;;;;;6.70;99.90;;;;;;5119342;27;20420;-79
2022/01/22 08:25:07;;;;;;;;;;;6.60;99.90;;;;;;5137098;27;19930;-79
2022/01/22 08:27:39;;;;;;;;;;;6.70;99.90;;;;;;5119410;27;19923;-79
2022/01/22 08:30:08;;;;;;;;;;;6.70;99.90;;;;;;5136624;27;20014;-80
2022/01/22 08:37:49;;;;;;;;;;;6.70;99.90;;;;;;5118364;27;19923;-80
2022/01/22 08:40:15;;;;;;;;;;;6.70;99.90;;;;;;5115996;28;19977;-80
2022/01/22 08:42:40;;;;;;;;;;;6.80;99.90;;;;;;5132938;28;19923;-80
2022/01/22 08:45:07;;;;;;;;;;;6.80;99.90;;;;;;5135661;27;19949;-79
2022/01/22 08:47:33;;;;;;;;;;;6.80;99.90;;;;;;5136395;27;19923;-79
2022/01/22 08:49:58;;;;;;;;;;;6.90;99.90;;;;;;5139493;27;19929;-80
2022/01/22 08:52:29;;;;;;;;;;;6.90;99.90;;;;;;5140611;27;20416;-80
2022/01/22 08:54:54;;;;;;;;;;;6.90;99.90;;;;;;5121893;27;19931;-80
2022/01/22 08:57:20;;;;;;;;;;;6.90;99.90;;;;;;5114219;27;19927;-81
2022/01/22 08:59:46;;;;;;;;;;;6.90;99.90;;;;;;5140208;27;19927;-81
2022/01/22 09:02:14;;;;;;;;;;;7.00;99.90;;;;;;5140907;27;19926;-79
2022/01/22 09:04:40;;;;;;;;;;;6.90;99.90;;;;;;5114579;27;20056;-79
2022/01/22 09:07:05;;;;;;;;;;;7.00;99.90;;;;;;5105944;27;20010;-81
2022/01/22 09:09:31;;;;;;;;;;;7.00;99.90;;;;;;5122678;27;20031;-82
2022/01/22 09:11:56;;;;;;;;;;;7.00;99.90;;;;;;5116964;27;19923;-81
2022/01/22 09:14:22;;;;;;;;;;;7.00;99.90;;;;;;5138114;27;20379;-80
2022/01/22 09:16:51;;;;;;;;;;;6.90;99.90;;;;;;5137921;27;19929;-81
2022/01/22 09:19:16;;;;;;;;;;;6.90;99.90;;;;;;5111327;27;20016;-82
2022/01/22 09:21:43;;;;;;;;;;;7.00;99.90;;;;;;5139848;27;19966;-82
2022/01/22 09:24:09;;;;;;;;;;;6.90;99.90;;;;;;5121667;27;19974;-81
2022/01/22 09:26:35;;;;;;;;;;;7.00;99.90;;;;;;5129355;27;20026;-82
2022/01/22 09:29:01;;;;;;;;;;;7.00;99.90;;;;;;5122886;27;19969;-81
2022/01/22 09:31:28;;;;;;;;;;;7.10;99.90;;;;;;5120205;27;19924;-80
2022/01/22 09:33:58;;;;;;;;;;;7.00;99.90;;;;;;5122399;27;20188;-81
2022/01/22 09:36:24;;;;;;;;;;;7.00;99.90;;;;;;5107331;27;19927;-80
2022/01/22 09:38:50;;;;;;;;;;;7.00;99.90;;;;;;5118976;27;20379;-81
2022/01/22 09:41:16;;;;;;;;;;;7.10;99.90;;;;;;5111711;27;19929;-81
2022/01/22 09:43:42;;;;;;;;;;;7.00;99.90;;;;;;5137323;27;19920;-81
2022/01/22 09:46:08;;;;;;;;;;;7.00;99.90;;;;;;5105586;27;19927;-82
2022/01/22 09:48:33;;;;;;;;;;;7.00;99.90;;;;;;5139037;27;19931;-86
2022/01/22 09:50:59;;;;;;;;;;;7.00;99.90;;;;;;5137043;27;19923;-82
2022/01/22 09:53:24;;;;;;;;;;;7.00;99.90;;;;;;5136387;27;19923;-81
2022/01/22 09:55:51;;;;;;;;;;;7.00;99.90;;;;;;5122042;27;20295;-79
2022/01/22 09:58:16;;;;;;;;;;;7.10;99.90;;;;;;5116116;27;19923;-81
2022/01/22 10:00:42;;;;;;;;;;;7.10;99.90;;;;;;5119284;27;19934;-80
2022/01/22 10:03:15;;;;;;;;;;;7.00;99.90;;;;;;5132620;27;19923;-80
2022/01/22 10:05:41;;;;;;;;;;;7.10;99.90;;;;;;5121709;27;20305;-80
2022/01/22 10:08:17;;;;;;;;;;;7.10;99.90;;;;;;5138401;27;19931;-83
2022/01/22 10:10:42;;;;;;;;;;;7.10;99.90;;;;;;5120956;27;19923;-81
2022/01/22 10:13:08;;;;;;;;;;;7.00;99.90;;;;;;5102619;27;19928;-82
2022/01/22 10:15:35;;;;;;;;;;;7.10;99.90;;;;;;5110567;27;19928;-80
2022/01/22 10:18:02;;;;;;;;;;;7.10;99.90;;;;;;5118508;27;19970;-80
2022/01/22 10:20:29;;;;;;;;;;;7.10;99.90;;;;;;5116174;27;19928;-82
2022/01/22 10:22:58;;;;;;;;;;;7.10;99.90;;;;;;5137106;27;19923;-81
2022/01/22 10:25:31;;;;;;;;;;;7.10;99.90;;;;;;5119201;27;19931;-82
2022/01/22 10:28:08;;;;;;;;;;;7.10;99.90;;;;;;5135246;27;19972;-84
2022/01/22 10:30:42;;;;;;;;;;;7.10;99.90;;;;;;5118050;27;19923;-83
2022/01/22 10:33:19;;;;;;;;;;;7.10;99.90;;;;;;5137955;27;19931;-82
2022/01/22 10:35:45;;;;;;;;;;;7.00;99.90;;;;;;5137898;27;19973;-79
2022/01/22 10:38:11;;;;;;;;;;;7.10;99.90;;;;;;5138701;27;19959;-82
2022/01/22 10:40:38;;;;;;;;;;;7.10;99.90;;;;;;5137874;27;20039;-81
2022/01/22 10:43:20;;;;;;;;;;;7.10;99.90;;;;;;5138744;27;19927;-80
2022/01/22 10:46:08;;;;;;;;;;;7.10;99.90;;;;;;5137356;27;19935;-82
2022/01/22 10:48:35;;;;;;;;;;;7.20;99.90;;;;;;5126702;27;19980;-82
2022/01/22 10:51:00;;;;;;;;;;;7.20;99.90;;;;;;5125200;27;20278;-82
2022/01/22 10:53:36;;;;;;;;;;;7.20;99.90;;;;;;5113106;27;19923;-81
2022/01/22 10:56:03;;;;;;;;;;;7.30;99.90;;;;;;5125660;27;19928;-82
2022/01/22 10:58:30;;;;;;;;;;;7.30;99.90;;;;;;5101943;27;19974;-82
2022/01/22 11:01:00;;;;;;;;;;;7.20;99.90;;;;;;5134742;27;20359;-82
2022/01/22 11:03:28;;;;;;;;;;;7.30;99.90;;;;;;5131074;27;19923;-92
2022/01/22 11:05:54;;;;;;;;;;;7.30;99.90;;;;;;5128219;27;19923;-82
2022/01/22 11:08:20;;;;;;;;;;;7.30;99.90;;;;;;5118000;27;19923;-82
2022/01/22 11:10:46;;;;;;;;;;;7.20;99.90;;;;;;5137728;27;20688;-82
2022/01/22 11:13:11;;;;;;;;;;;7.30;99.90;;;;;;5137592;27;19923;-81
2022/01/22 11:15:39;;;;;;;;;;;7.30;99.90;;;;;;5120512;27;19930;-81
2022/01/22 11:18:05;;;;;;;;;;;7.30;99.90;;;;;;5137283;27;20363;-82
2022/01/22 11:20:32;;;;;;;;;;;7.30;99.90;;;;;;5103556;27;19961;-81
2022/01/22 11:22:58;;;;;;;;;;;7.30;99.90;;;;;;5120639;27;20382;-81
2022/01/22 11:25:24;;;;;;;;;;;7.40;99.90;;;;;;5103829;27;19927;-81
2022/01/22 11:27:51;;;;;;;;;;;7.30;99.90;;;;;;5137013;27;20080;-81
2022/01/22 11:30:17;;;;;;;;;;;7.30;99.90;;;;;;5120392;27;19923;-80
2022/01/22 11:32:44;;;;;;;;;;;7.30;99.90;;;;;;5128757;27;19924;-82
2022/01/22 11:35:11;;;;;;;;;;;7.30;99.90;;;;;;5114230;27;19967;-81
2022/01/22 11:37:45;;;;;;;;;;;7.30;99.90;;;;;;5135713;27;20412;-81
2022/01/22 11:40:16;;;;;;;;;;;7.30;99.90;;;;;;5114903;27;19924;-81
2022/01/22 11:43:05;;;;;;;;;;;7.20;99.90;;;;;;5135406;27;19923;-81
2022/01/22 11:45:32;;;;;;;;;;;7.30;99.90;;;;;;5114765;27;19923;-81
2022/01/22 11:48:14;;;;;;;;;;;7.30;99.90;;;;;;5134583;27;19927;-81
2022/01/22 11:50:40;;;;;;;;;;;7.30;99.90;;;;;;5132717;27;20359;-81
2022/01/22 11:53:25;;;;;;;;;;;7.30;99.90;;;;;;5116166;27;19923;-81
2022/01/22 11:56:12;;;;;;;;;;;7.30;99.90;;;;;;5118985;27;20271;-80
2022/01/22 11:58:56;;;;;;;;;;;7.30;99.90;;;;;;5119056;27;19930;-81
2022/01/22 12:04:14;;;;;;;;;;;7.20;99.90;;;;;;5119351;27;19923;-81
2022/01/22 12:06:59;;;;;;;;;;;7.20;99.90;;;;;;5117308;27;19924;-80
2022/01/22 12:09:25;;;;;;;;;;;7.20;99.90;;;;;;5136515;27;20375;-80
2022/01/22 12:14:56;;;;;;;;;;;7.10;99.90;;;;;;5136410;27;19930;-81
2022/01/22 12:17:41;;;;;;;;;;;7.00;99.90;;;;;;5114996;27;20018;-80
2022/01/22 12:20:39;;;;;;;;;;;7.00;99.90;;;;;;5074565;28;19923;-80
2022/01/22 12:23:05;;;;;;;;;;;7.00;99.90;;;;;;5110310;27;19968;-80
2022/01/22 12:25:30;;;;;;;;;;;7.00;99.90;;;;;;5107922;28;20349;-84
2022/01/22 12:27:57;;;;;;;;;;;7.00;99.90;;;;;;5124529;27;20398;-81
2022/01/22 12:30:45;;;;;;;;;;;7.00;99.90;;;;;;5135390;27;19923;-82
2022/01/22 12:33:33;;;;;;;;;;;7.00;99.90;;;;;;5132923;27;19923;-83
2022/01/22 12:36:00;;;;;;;;;;;7.00;99.90;;;;;;5123191;27;19930;-83
2022/01/22 12:38:30;;;;;;;;;;;7.10;99.90;;;;;;5129314;27;19929;-83
2022/01/22 12:41:13;;;;;;;;;;;7.10;99.90;;;;;;5117979;27;19923;-83
2022/01/22 12:43:40;;;;;;;;;;;7.10;99.90;;;;;;5118397;27;20018;-83
2022/01/22 12:46:05;;;;;;;;;;;7.20;99.90;;;;;;5135081;27;19923;-82
2022/01/22 12:48:32;;;;;;;;;;;7.10;99.90;;;;;;5134409;27;20006;-83
2022/01/22 12:51:02;;;;;;;;;;;7.10;99.90;;;;;;5135389;27;20275;-83
2022/01/22 12:53:27;;;;;;;;;;;7.10;99.90;;;;;;5085105;28;19934;-82
2022/01/22 12:58:25;;;;;;;;;;;7.10;99.90;;;;;;5134590;27;20271;-82
2022/01/22 13:00:54;;;;;;;;;;;7.10;99.90;;;;;;5134512;27;19995;-82
2022/01/22 13:03:33;;;;;;;;;;;7.10;99.90;;;;;;5138102;27;20434;-79
2022/01/22 13:05:59;;;;;;;;;;;7.10;99.90;;;;;;5136135;27;20276;-81
2022/01/22 13:08:29;;;;;;;;;;;7.10;99.90;;;;;;5119532;27;19931;-83
2022/01/22 13:10:55;;;;;;;;;;;7.10;99.90;;;;;;5121947;27;19931;-84
2022/01/22 13:13:21;;;;;;;;;;;7.10;99.90;;;;;;5118362;27;19930;-82
2022/01/22 13:15:59;;;;;;;;;;;7.10;99.90;;;;;;5135393;27;20026;-83
2022/01/22 13:18:24;;;;;;;;;;;7.10;99.90;;;;;;5134208;27;19923;-82
2022/01/22 13:20:50;;;;;;;;;;;7.00;99.90;;;;;;5118898;27;20011;-86
2022/01/22 13:23:17;;;;;;;;;;;7.00;99.90;;;;;;5135065;27;19923;-86
2022/01/22 13:25:42;;;;;;;;;;;7.10;99.90;;;;;;5118227;27;20278;-84
2022/01/22 13:28:11;;;;;;;;;;;7.00;99.90;;;;;;5118737;27;19927;-83
2022/01/22 13:30:42;;;;;;;;;;;7.00;99.90;;;;;;5118395;27;20416;-85
2022/01/22 13:33:14;;;;;;;;;;;7.00;99.90;;;;;;5134133;27;19927;-85
2022/01/22 13:35:54;;;;;;;;;;;7.00;99.90;;;;;;5136175;27;20003;-82
2022/01/22 13:49:03;;;;;;;;;;;7.00;99.90;;;;;;5139350;27;20430;-86
2022/01/22 13:51:29;;;;;;;;;;;7.00;99.90;;;;;;5122499;27;19930;-86
2022/01/22 13:53:55;;;;;;;;;;;7.00;99.90;;;;;;5122154;27;19927;-84
2022/01/22 13:56:40;;;;;;;;;;;7.00;99.90;;;;;;5121256;27;19923;-83
2022/01/22 13:59:13;;;;;;;;;;;7.00;99.90;;;;;;5121827;27;19924;-81
2022/01/22 14:01:51;;;;;;;;;;;6.90;99.90;;;;;;5136979;27;20400;-82
2022/01/22 14:04:17;;;;;;;;;;;6.90;99.90;;;;;;5121318;27;19924;-83
2022/01/22 14:06:43;;;;;;;;;;;6.90;99.90;;;;;;5120841;27;19934;-83
2022/01/22 14:09:13;;;;;;;;;;;6.80;99.90;;;;;;5138317;27;19927;-84
2022/01/22 14:11:58;;;;;;;;;;;6.80;99.90;;;;;;5138068;27;19923;-82
2022/01/22 14:14:25;;;;;;;;;;;6.80;99.90;;;;;;5120695;27;20387;-82
2022/01/22 14:17:08;;;;;;;;;;;6.80;99.90;;;;;;5137719;27;19923;-83
2022/01/22 14:19:34;;;;;;;;;;;6.90;99.90;;;;;;5137232;27;19927;-86
2022/01/22 14:21:59;;;;;;;;;;;6.80;99.90;;;;;;5102159;27;20291;-80
2022/01/22 14:24:29;;;;;;;;;;;6.80;99.90;;;;;;5134765;27;19927;-81
2022/01/22 14:26:54;;;;;;;;;;;6.80;99.90;;;;;;5100332;27;19927;-82
2022/01/22 14:29:20;;;;;;;;;;;6.80;99.90;;;;;;5120822;27;19947;-84
2022/01/22 14:31:49;;;;;;;;;;;6.80;99.90;;;;;;5117103;27;19924;-84
2022/01/22 14:34:31;;;;;;;;;;;6.80;99.90;;;;;;5112195;27;19934;-83
2022/01/22 14:36:57;;;;;;;;;;;6.80;99.90;;;;;;5132405;27;19927;-80
2022/01/22 14:44:36;;;;;;;;;;;6.80;99.90;;;;;;5143915;27;20346;-83
2022/01/22 14:47:08;;;;;;;;;;;6.80;99.90;;;;;;5119839;27;19971;-81
2022/01/22 14:49:45;;;;;;;;;;;6.70;99.90;;;;;;5138475;27;20122;-81
2022/01/22 14:52:12;;;;;;;;;;;6.70;99.90;;;;;;5120744;27;19930;-82
2022/01/22 14:54:42;;;;;;;;;;;6.70;99.90;;;;;;5137459;27;20264;-82
2022/01/22 14:57:10;;;;;;;;;;;6.70;99.90;;;;;;5136779;27;19927;-80
2022/01/22 14:59:36;;;;;;;;;;;6.70;99.90;;;;;;5137736;27;20275;-80
2022/01/22 15:02:02;;;;;;;;;;;6.70;99.90;;;;;;5136833;27;20569;-77
2022/01/22 15:04:28;;;;;;;;;;;6.70;99.90;;;;;;5136495;27;19930;-82
2022/01/22 15:06:55;;;;;;;;;;;6.70;99.90;;;;;;5137143;27;19927;-82
2022/01/22 15:09:21;;;;;;;;;;;6.70;99.90;;;;;;5135977;27;20002;-80
2022/01/22 15:11:46;;;;;;;;;;;6.70;99.90;;;;;;5117300;27;20018;-83
2022/01/22 15:14:12;;;;;;;;;;;6.70;99.90;;;;;;5129778;27;20427;-81
2022/01/22 15:16:45;;;;;;;;;;;6.70;99.90;;;;;;5131804;27;19936;-80
2022/01/22 15:19:14;;;;;;;;;;;6.70;99.90;;;;;;5105830;27;19963;-81
2022/01/22 15:21:41;;;;;;;;;;;6.70;99.90;;;;;;5109634;27;20411;-80
2022/01/22 15:24:07;;;;;;;;;;;6.60;99.90;;;;;;5123259;27;19963;-82
2022/01/22 15:26:32;;;;;;;;;;;6.60;99.90;;;;;;5094200;27;20004;-82
2022/01/22 15:28:58;;;;;;;;;;;6.60;99.90;;;;;;5130343;27;19924;-80
2022/01/22 15:34:05;;;;;;;;;;;6.60;99.90;;;;;;5106908;27;19934;-81
2022/01/22 15:36:30;;;;;;;;;;;6.60;99.90;;;;;;5129873;27;19930;-82
2022/01/22 15:38:56;;;;;;;;;;;6.60;99.90;;;;;;5121078;27;19924;-78
2022/01/22 15:41:21;;;;;;;;;;;6.60;99.90;;;;;;5115014;27;19934;-80
2022/01/22 15:43:47;;;;;;;;;;;6.60;99.90;;;;;;5087441;27;20395;-79
2022/01/22 15:46:13;;;;;;;;;;;6.60;99.90;;;;;;5115850;27;19949;-80
2022/01/22 15:48:41;;;;;;;;;;;6.60;99.90;;;;;;5133391;27;19949;-80
2022/01/22 15:51:07;;;;;;;;;;;6.60;99.90;;;;;;5131634;27;20486;-81
2022/01/22 15:53:33;;;;;;;;;;;6.60;99.90;;;;;;5133292;27;19924;-81
2022/01/22 15:55:59;;;;;;;;;;;6.60;99.90;;;;;;5115734;27;20047;-81
2022/01/22 15:58:24;;;;;;;;;;;6.60;99.90;;;;;;5115519;27;19927;-83
2022/01/22 16:00:50;;;;;;;;;;;6.50;99.90;;;;;;5115863;27;19928;-82
2022/01/22 16:03:17;;;;;;;;;;;6.60;99.90;;;;;;5130444;27;19923;-83
2022/01/22 16:05:44;;;;;;;;;;;6.60;99.90;;;;;;5098980;27;20014;-83
2022/01/22 16:08:11;;;;;;;;;;;6.50;99.90;;;;;;5132332;27;19931;-82
2022/01/22 16:10:37;;;;;;;;;;;6.60;99.90;;;;;;5132849;27;19931;-80
2022/01/22 16:13:02;;;;;;;;;;;6.60;99.90;;;;;;5131265;27;19927;-83
2022/01/22 16:15:29;;;;;;;;;;;6.60;99.90;;;;;;5105421;27;20014;-83
2022/01/22 16:17:57;;;;;;;;;;;6.60;99.90;;;;;;5131174;27;21324;-82
2022/01/22 16:20:24;;;;;;;;;;;6.60;99.90;;;;;;5103168;28;19974;-83
2022/01/22 16:22:50;;;;;;;;;;;6.60;99.90;;;;;;5112123;28;20325;-83
2022/01/22 16:25:16;;;;;;;;;;;6.50;99.90;;;;;;5106382;27;19924;-83
2022/01/22 16:27:41;;;;;;;;;;;6.60;99.90;;;;;;5132627;27;19929;-83
2022/01/22 16:30:07;;;;;;;;;;;6.60;99.90;;;;;;5098259;28;19927;-82
2022/01/22 16:32:33;;;;;;;;;;;6.50;99.90;;;;;;5120544;28;19928;-83
2022/01/22 16:34:58;;;;;;;;;;;6.50;99.90;;;;;;5100115;28;19992;-80
2022/01/22 16:37:25;;;;;;;;;;;6.50;99.90;;;;;;5097943;28;20019;-79
2022/01/22 16:39:51;;;;;;;;;;;6.50;99.90;;;;;;5131669;28;19928;-80
2022/01/22 16:42:18;;;;;;;;;;;6.50;99.90;;;;;;5128816;28;19961;-80